Latest Weather Observations for Eildon Fire Tower

IDV60801

Issued at 8:32 pm EST Tuesday 23 May 2017 (issued every 30 minutes, with the page automatically refreshed every 10 minutes)

About weather observations | Map of weather stations | Latest weather observations for VIC | Other Formats
Station Details ID: 088164 Name: EILDON FIRE TOWER Lat: -37.21 Lon: 145.84 Height: 637.0 m
Data from the previous 72 hours. | See also: Recent months at Eildon Fire Tower
Date/Time
EST
Temp
°C
App
Temp
°C
Dew
Point
°C
Rel
Hum
%
Delta-T
°C
Wind Press
QNH
hPa
Press
MSL
hPa
Rain since
9am
mm
Dir  Spd
km/h
Gust
km/h
Spd
kts
Gust
kts
23/08:30pm 11.6 9.8 9.3 86 1.2 NNE 9 13 5 7 - - 0.6
23/08:00pm 11.8 9.9 9.2 84 1.4 NNE 9 13 5 7 - - 0.6
23/07:30pm 12.2 10.0 9.4 83 1.5 N 11 17 6 9 - - 0.6
23/07:00pm 12.0 10.2 9.6 85 1.3 NNE 9 11 5 6 - - 0.6
23/06:30pm 11.9 9.7 9.3 84 1.4 NNE 11 17 6 9 - - 0.6
23/06:00pm 11.7 9.8 9.1 84 1.3 NNE 9 13 5 7 - - 0.6
23/05:30pm 12.0 9.7 9.0 82 1.6 NE 11 17 6 9 - - 0.6
23/05:00pm 12.4 10.0 8.5 77 2.0 NE 11 17 6 9 - - 0.6
23/04:30pm 13.4 11.5 8.9 74 2.3 NE 9 13 5 7 - - 0.6
23/04:00pm 13.7 11.8 9.0 73 2.5 NNE 9 15 5 8 - - 0.6
23/03:30pm 13.8 10.8 9.3 74 2.4 NE 15 24 8 13 - - 0.6
23/03:00pm 14.5 11.2 9.5 72 2.7 NE 17 26 9 14 - - 0.6
23/02:30pm 14.4 11.1 9.4 72 2.7 NNE 17 24 9 13 - - 0.6
23/02:00pm 15.2 13.0 10.8 75 2.4 NNE 13 22 7 12 - - 0.6
23/01:30pm 13.5 11.0 10.9 84 1.4 NE 15 28 8 15 - - 0.6
23/01:00pm 11.4 9.0 10.1 92 0.7 NNE 13 19 7 10 - - 0.6
23/12:30pm 11.4 9.3 9.8 90 0.8 NNE 11 19 6 10 - - 0.6
23/12:00pm 12.5 9.8 9.0 79 1.8 NNE 13 22 7 12 - - 0.0
23/11:30am 12.6 10.0 9.2 80 1.8 NE 13 17 7 9 - - 0.0
23/11:00am 12.8 10.1 8.9 77 2.0 NE 13 19 7 10 - - 0.0
23/10:30am 12.9 10.3 9.4 79 1.8 NNE 13 20 7 11 - - 0.0
23/10:00am 11.7 8.3 7.8 77 2.0 NE 15 22 8 12 - - 0.0
23/09:30am 12.3 8.1 8.4 77 2.0 NE 20 30 11 16 - - 0.0
23/09:00am 10.6 6.4 7.5 81 1.5 NE 19 26 10 14 - - 0.0
23/08:30am 10.5 5.7 7.2 80 1.6 NE 22 28 12 15 - - 0.0
23/08:00am 9.6 4.7 6.7 82 1.4 NE 22 28 12 15 - - 0.0
23/07:30am 10.5 5.9 6.6 77 1.9 NE 20 24 11 13 - - 0.0
23/07:00am 10.6 6.0 6.6 76 2.0 NE 20 26 11 14 - - 0.0
23/06:30am 10.5 5.6 6.8 78 1.8 ENE 22 28 12 15 - - 0.0
23/06:00am 10.6 6.0 6.7 77 1.9 NE 20 28 11 15 - - 0.0
23/05:30am 10.9 5.5 6.3 73 2.2 NE 24 30 13 16 - - 0.0
23/05:00am 11.3 6.7 5.6 68 2.7 NE 19 22 10 12 - - 0.0
23/04:30am 11.4 7.5 5.3 66 2.9 ENE 15 19 8 10 - - 0.0
23/04:00am 11.8 7.5 5.4 65 3.1 N 17 22 9 12 - - 0.0
23/03:30am 12.0 8.5 5.4 64 3.2 NW 13 19 7 10 - - 0.0
23/03:00am 11.1 9.1 4.6 64 3.0 NE 4 9 2 5 - - 0.0
23/02:30am 11.2 8.8 5.3 67 2.8 NE 7 11 4 6 - - 0.0
23/02:00am 11.1 8.0 5.6 69 2.6 NE 11 13 6 7 - - 0.0
23/01:30am 11.3 5.7 5.6 68 2.7 ENE 24 28 13 15 - - 0.0
23/01:00am 11.2 4.6 5.9 70 2.6 ENE 30 41 16 22 - - 0.0
23/12:30am 11.4 5.5 5.9 69 2.7 ENE 26 30 14 16 - - 0.0
23/12:00am 11.2 6.5 5.9 70 2.6 ENE 20 24 11 13 - - 0.0
 
Date/Time
EST
Temp
°C
App
Temp
°C
Dew
Point
°C
Rel
Hum
%
Delta-T
°C
Wind Press
QNH
hPa
Press
MSL
hPa
Rain since
9am
mm
Dir  Spd
km/h
Gust
km/h
Spd
kts
Gust
kts
22/11:30pm 11.2 5.7 6.1 71 2.5 ENE 24 30 13 16 - - 0.0
22/11:00pm 10.3 5.5 7.4 82 1.4 NE 22 28 12 15 - - 0.0
22/10:30pm 10.8 7.7 7.1 78 1.8 NE 13 20 7 11 - - 0.0
22/10:00pm 10.6 5.9 7.7 82 1.4 NE 22 24 12 13 - - 0.0
22/09:30pm 10.9 6.8 7.8 81 1.6 ENE 19 22 10 12 - - 0.0
22/09:00pm 11.1 7.0 7.8 80 1.7 NE 19 24 10 13 - - 0.0
22/08:30pm 11.1 6.8 7.8 80 1.7 NE 20 26 11 14 - - 0.0
22/08:00pm 11.1 7.0 8.0 81 1.6 NE 19 26 10 14 - - 0.0
22/07:30pm 11.2 6.7 6.9 75 2.1 NE 20 30 11 16 - - 0.0
22/07:00pm 11.7 6.8 5.3 65 3.1 NE 20 26 11 14 - - 0.0
22/06:30pm 11.9 7.6 5.1 63 3.2 NE 17 24 9 13 - - 0.0
22/06:00pm 12.0 8.7 4.7 61 3.5 NNE 11 19 6 10 - - 0.0
22/05:30pm 12.6 8.6 4.8 59 3.7 NNE 15 20 8 11 - - 0.0
22/05:00pm 13.1 9.7 6.0 62 3.5 NNE 13 20 7 11 - - 0.0
22/04:30pm 14.2 11.4 7.0 62 3.6 NNE 11 20 6 11 - - 0.0
22/04:00pm 14.8 11.6 8.3 65 3.4 NE 15 22 8 12 - - 0.0
22/03:30pm 15.1 11.8 8.1 63 3.6 NE 15 22 8 12 - - 0.0
22/03:00pm 15.8 13.9 9.0 64 3.6 NNE 9 19 5 10 - - 0.0
22/02:30pm 15.6 13.4 9.5 67 3.3 NE 11 17 6 9 - - 0.0
22/02:00pm 14.8 13.1 9.8 72 2.7 NE 9 15 5 8 - - 0.0
22/01:30pm 15.1 13.9 10.3 73 2.6 NE 7 9 4 5 - - 0.0
22/01:00pm 13.6 12.1 9.3 75 2.3 NE 7 11 4 6 - - 0.0
22/12:30pm 13.3 11.8 9.0 75 2.2 NNE 7 13 4 7 - - 0.0
22/12:00pm 13.3 11.3 8.6 73 2.4 NE 9 13 5 7 - - 0.0
22/11:30am 12.8 10.5 8.9 77 2.0 NE 11 15 6 8 - - 0.0
22/11:00am 12.8 10.8 8.7 76 2.1 NE 9 13 5 7 - - 0.0
22/10:30am 12.6 11.1 9.2 80 1.8 NE 7 11 4 6 - - 0.0
22/10:00am 11.4 9.5 9.0 85 1.2 NE 9 9 5 5 - - 0.0
22/09:30am 10.3 8.4 9.1 92 0.6 ENE 9 9 5 5 - - 0.0
22/09:00am 9.8 7.3 8.4 91 0.7 ENE 11 13 6 7 - - 0.4
22/08:30am 9.4 6.3 8.9 97 0.3 E 15 17 8 9 - - 0.4
22/08:00am 8.7 5.5 8.4 98 0.2 E 15 17 8 9 - - 0.4
22/07:30am 8.3 4.2 8.0 98 0.1 E 19 20 10 11 - - 0.2
22/07:00am 7.8 4.0 7.5 98 0.1 E 17 19 9 10 - - 0.2
22/06:30am 7.5 4.4 7.2 98 0.1 ENE 13 17 7 9 - - 0.2
22/06:00am 7.3 4.1 6.9 97 0.2 ENE 13 19 7 10 - - 0.2
22/05:30am 8.0 4.2 7.6 97 0.2 ENE 17 19 9 10 - - 0.2
22/05:00am 8.1 5.1 7.5 96 0.3 ENE 13 15 7 8 - - 0.0
22/04:30am 9.2 6.7 8.4 95 0.4 E 11 11 6 6 - - 0.0
22/04:00am 9.3 6.9 8.7 96 0.3 ENE 11 11 6 6 - - 0.0
22/03:30am 9.3 6.9 8.7 96 0.3 NE 11 11 6 6 - - 0.0
22/03:00am 9.6 7.7 9.1 97 0.3 NE 9 11 5 6 - - 0.0
22/02:30am 9.5 7.2 9.0 97 0.3 NNE 11 11 6 6 - - 0.0
22/02:00am 9.6 7.3 9.1 97 0.3 NE 11 13 6 7 - - 0.0
22/01:30am 9.6 6.9 9.1 97 0.3 NE 13 13 7 7 - - 0.0
22/01:00am 9.2 6.4 8.6 96 0.3 ENE 13 15 7 8 - - 0.0
22/12:30am 9.6 7.3 9.0 96 0.3 NE 11 13 6 7 - - 0.0
22/12:00am 9.8 7.9 9.2 96 0.3 NNE 9 13 5 7 - - 0.0
 
Date/Time
EST
Temp
°C
App
Temp
°C
Dew
Point
°C
Rel
Hum
%
Delta-T
°C
Wind Press
QNH
hPa
Press
MSL
hPa
Rain since
9am
mm
Dir  Spd
km/h
Gust
km/h
Spd
kts
Gust
kts
21/11:30pm 9.9 8.1 9.3 96 0.3 NNE 9 11 5 6 - - 0.0
21/11:00pm 9.8 7.5 9.0 95 0.4 NNE 11 11 6 6 - - 0.0
21/10:30pm 10.0 8.1 9.2 95 0.4 NNE 9 11 5 6 - - 0.0
21/10:00pm 10.4 8.6 9.5 94 0.5 NE 9 11 5 6 - - 0.0
21/09:30pm 10.3 8.5 9.4 94 0.5 NE 9 11 5 6 - - 0.0
21/09:00pm 10.5 8.7 9.3 92 0.6 NNE 9 11 5 6 - - 0.0
21/08:30pm 10.7 9.2 9.1 90 0.8 NNE 7 9 4 5 - - 0.0
21/08:00pm 11.2 10.0 9.6 90 0.8 N 6 7 3 4 - - 0.0
21/07:30pm 11.4 10.1 9.1 86 1.2 N 6 6 3 3 - - 0.0
21/07:00pm 11.5 10.5 8.7 83 1.4 N 4 6 2 3 - - 0.0
21/06:30pm 11.9 9.9 8.7 81 1.6 N 9 9 5 5 - - 0.0
21/06:00pm 11.9 9.5 8.6 80 1.7 N 11 13 6 7 - - 0.0
21/05:30pm 12.1 10.6 9.1 82 1.6 N 7 9 4 5 - - 0.0
21/05:00pm 12.6 12.5 9.6 82 1.6 CALM 0 0 0 0 - - 0.0
21/04:30pm 13.9 13.5 9.9 77 2.1 NNE 2 6 1 3 - - 0.0
21/04:00pm 13.2 12.9 10.2 82 1.6 N 2 4 1 2 - - 0.0
21/03:30pm 12.7 12.6 9.5 81 1.7 CALM 0 0 0 0 - - 0.0
21/03:00pm 12.8 12.5 10.0 83 1.5 NE 2 4 1 2 - - 0.0
21/02:30pm 12.9 12.5 9.7 81 1.7 NE 2 4 1 2 - - 0.0
21/02:00pm 13.7 12.6 10.1 79 1.9 ENE 6 9 3 5 - - 0.0
21/01:30pm 12.3 11.1 9.5 83 1.5 N 6 9 3 5 - - 0.0
21/01:00pm 12.3 10.9 9.7 84 1.4 NNE 7 11 4 6 - - 0.0
21/12:30pm 11.9 11.1 9.6 86 1.2 NE 4 6 2 3 - - 0.0
21/12:00pm 12.2 11.1 9.9 86 1.2 NE 6 9 3 5 - - 0.0
21/11:30am 11.6 10.9 10.2 91 0.7 NNE 4 7 2 4 - - 0.0
21/11:00am 11.2 10.0 9.5 89 0.9 NNE 6 9 3 5 - - 0.0
21/10:30am 10.7 8.9 9.3 91 0.7 NNE 9 13 5 7 - - 0.0
21/10:00am 10.3 8.8 9.1 92 0.6 NNE 7 11 4 6 - - 0.0
21/09:30am 9.8 8.2 8.7 93 0.6 NNE 7 9 4 5 - - 0.0
21/09:00am 9.8 8.2 8.7 93 0.6 NNE 7 13 4 7 - - 0.8
21/08:30am 10.1 8.2 9.0 93 0.6 NE 9 13 5 7 - - 0.8
21/08:00am 9.7 7.5 9.2 97 0.3 NE 11 13 6 7 - - 0.8
21/07:30am 8.5 6.0 8.1 97 0.2 NE 11 13 6 7 - - 0.8
21/07:00am 8.7 7.2 8.3 97 0.2 NE 6 7 3 4 - - 0.8
21/06:30am 8.7 7.1 8.1 96 0.3 NNE 6 7 3 4 - - 0.8
21/06:00am 8.8 7.1 8.2 96 0.3 NE 7 7 4 4 - - 0.8
21/05:30am 9.0 7.4 8.2 95 0.4 NE 6 7 3 4 - - 0.8
21/05:00am 9.1 7.4 8.3 95 0.4 NE 7 9 4 5 - - 0.8
21/04:30am 9.3 7.8 8.5 95 0.4 NNE 6 6 3 3 - - 0.8
21/04:00am 9.7 8.3 8.9 95 0.4 NNE 6 6 3 3 - - 0.8
21/03:30am 9.8 8.3 9.0 95 0.4 NNE 7 7 4 4 - - 0.8
21/03:00am 9.6 8.1 9.1 97 0.3 NE 7 7 4 4 - - 0.8
21/02:30am 9.2 7.6 8.7 97 0.3 NE 7 7 4 4 - - 0.8
21/02:00am 9.4 7.8 8.8 96 0.3 NE 7 9 4 5 - - 0.8
21/01:30am 9.5 7.9 8.9 96 0.3 NE 7 9 4 5 - - 0.8
21/01:00am 9.7 8.2 9.1 96 0.3 NE 7 7 4 4 - - 0.6
21/12:30am 9.6 8.2 9.0 96 0.3 NE 6 7 3 4 - - 0.6
21/12:00am 9.8 8.5 9.2 96 0.3 NNE 6 7 3 4 - - 0.6
 
Date/Time
EST
Temp
°C
App
Temp
°C
Dew
Point
°C
Rel
Hum
%
Delta-T
°C
Wind Press
QNH
hPa
Press
MSL
hPa
Rain since
9am
mm
Dir  Spd
km/h
Gust
km/h
Spd
kts
Gust
kts
20/11:30pm 9.9 8.6 9.3 96 0.3 N 6 7 3 4 - - 0.6
20/11:00pm 9.8 8.3 9.0 95 0.4 NNE 7 9 4 5 - - 0.6
20/10:30pm 9.8 8.2 8.9 94 0.5 NE 7 7 4 4 - - 0.6
20/10:00pm 10.1 8.2 9.2 94 0.5 ENE 9 9 5 5 - - 0.6
20/09:30pm 10.3 8.4 8.9 91 0.7 E 9 11 5 6 - - 0.6
20/09:00pm 10.2 8.8 8.8 91 0.7 ESE 6 7 3 4 - - 0.6

Other Formats:

Comma delimited format used in spreadsheet applications
http://www.bom.gov.au/fwo/IDV60801/IDV60801.94881.axf

JavaScript Object Notation format (JSON) in row-major order
http://www.bom.gov.au/fwo/IDV60801/IDV60801.94881.json